Sturgeon Falls, Canada
Current Conditions -  °F | °C
As of 10:00 PM on Saturday 22 Nov 2014 (Local Time) from CYYB Reporting Station
Haze Haze  
Wind Chill: 28°   Ceiling: 200
Heat Index: 36°   Visibility: 0.75mi
Dew Point: 36°   Wind: 10mph
Humidity: 100%   Direction: 250°WSW
Pressure: 29.78"   Gusts: 17mph
Location:  46.37°N, 79.93°W
Report Text: CYYB 230300Z 25009G15KT 3/4SM R08/4000VP6000FT/D BR VV002 02/02 A2978 RMK FG8 LAST STFD OBS/NEXT 231200 UTC SLP102
Loading
Personal Weather Stations






























Interactive Weather Map New forecast layout! Learn more

10-Day Weather Forecast

Advertisements
Track Severe Weather on mobile